Map

Track Data

SID SEASON NUMBER BASIN SUBBASIN NAME ISO_TIME NATURE LAT LON WMO_WIND WMO_PRES WMO_AGENCY TRACK_TYPE DIST2LAND LANDFALL IFLAG USA_AGENCY USA_ATCF_ID USA_LAT USA_LON USA_RECORD USA_STATUS USA_WIND USA_PRES USA_SSHS USA_R34_NE USA_R34_SE USA_R34_SW USA_R34_NW USA_R50_NE USA_R50_SE USA_R50_SW USA_R50_NW USA_R64_NE USA_R64_SE USA_R64_SW USA_R64_NW USA_POCI USA_ROCI USA_RMW USA_EYE TOKYO_LAT TOKYO_LON TOKYO_GRADE TOKYO_WIND TOKYO_PRES TOKYO_R50_DIR TOKYO_R50_LONG TOKYO_R50_SHORT TOKYO_R30_DIR TOKYO_R30_LONG TOKYO_R30_SHORT TOKYO_LAND CMA_LAT CMA_LON CMA_CAT CMA_WIND CMA_PRES HKO_LAT HKO_LON HKO_CAT HKO_WIND HKO_PRES NEWDELHI_LAT NEWDELHI_LON NEWDELHI_GRADE NEWDELHI_WIND NEWDELHI_PRES NEWDELHI_CI NEWDELHI_DP NEWDELHI_POCI REUNION_LAT REUNION_LON REUNION_TYPE REUNION_WIND REUNION_PRES REUNION_TNUM REUNION_CI REUNION_RMW REUNION_R34_NE REUNION_R34_SE REUNION_R34_SW REUNION_R34_NW REUNION_R50_NE REUNION_R50_SE REUNION_R50_SW REUNION_R50_NW REUNION_R64_NE REUNION_R64_SE REUNION_R64_SW REUNION_R64_NW BOM_LAT BOM_LON BOM_TYPE BOM_WIND BOM_PRES BOM_TNUM BOM_CI BOM_RMW BOM_R34_NE BOM_R34_SE BOM_R34_SW BOM_R34_NW BOM_R50_NE BOM_R50_SE BOM_R50_SW BOM_R50_NW BOM_R64_NE BOM_R64_SE BOM_R64_SW BOM_R64_NW BOM_ROCI BOM_POCI BOM_EYE BOM_POS_METHOD BOM_PRES_METHOD NADI_LAT NADI_LON NADI_CAT NADI_WIND NADI_PRES WELLINGTON_LAT WELLINGTON_LON WELLINGTON_WIND WELLINGTON_PRES DS824_LAT DS824_LON DS824_STAGE DS824_WIND DS824_PRES TD9636_LAT TD9636_LON TD9636_STAGE TD9636_WIND TD9636_PRES TD9635_LAT TD9635_LON TD9635_WIND TD9635_PRES TD9635_ROCI NEUMANN_LAT NEUMANN_LON NEUMANN_CLASS NEUMANN_WIND NEUMANN_PRES MLC_LAT MLC_LON MLC_CLASS MLC_WIND MLC_PRES USA_GUST BOM_GUST BOM_GUST_PER REUNION_GUST REUNION_GUST_PER USA_SEAHGT USA_SEARAD_NE USA_SEARAD_SE USA_SEARAD_SW USA_SEARAD_NW STORM_SPEED STORM_DIR
1872253N13301 1872 21 NA NA NOT_NAMED 1872-09-09 00:00:00 TS 12.6333 -59.1000 40 hurdat_atl main 296 290 O____________O hurdat_atl AL031872 12.5000 -59.4000 TS 40 0 12.9000 -58.5000 TS 40 5 303
1872253N13301 1872 21 NA NA NOT_NAMED 1872-09-09 03:00:00 TS 12.7667 -59.3091 main 299 292 P____________P AL031872 12.6325 -59.5500 TS 40 0 13.0350 -58.8275 TS 40 5 305
1872253N13301 1872 21 NA CS NOT_NAMED 1872-09-09 06:00:00 TS 12.9333 -59.5333 40 hurdat_atl main 295 293 O____________O hurdat_atl AL031872 12.8000 -59.7000 TS 40 0 13.2000 -59.2000 TS 40 6 310
1872253N13301 1872 21 NA CS NOT_NAMED 1872-09-09 09:00:00 TS 13.1583 -59.7809 main 308 304 P____________P AL031872 13.0275 -59.8500 TS 40 0 13.4200 -59.6425 TS 40 7 316
1872253N13301 1872 21 NA CS NOT_NAMED 1872-09-09 12:00:00 TS 13.4333 -60.0333 40 hurdat_atl main 321 321 O____________O hurdat_atl AL031872 13.3000 -60.0000 TS 40 0 13.7000 -60.1000 TS 40 7 321
1872253N13301 1872 21 NA CS NOT_NAMED 1872-09-09 15:00:00 TS 13.7349 -60.2618 main 344 344 P____________P AL031872 13.6000 -60.1500 TS 40 0 14.0048 -60.4854 TS 47 8 324
1872253N13301 1872 21 NA CS NOT_NAMED 1872-09-09 18:00:00 TS 14.0667 -60.5000 40 hurdat_atl main 384 383 O____________O hurdat_atl AL031872 13.9000 -60.3000 TS 40 0 14.4000 -60.9000 TS 55 8 323
1872253N13301 1872 21 NA CS NOT_NAMED 1872-09-09 21:00:00 TS 14.4017 -60.7833 main 414 414 P____________P AL031872 14.1350 -60.4426 TS 45 0 14.9352 -61.4646 TS 55 9 322
1872253N13301 1872 21 NA CS NOT_NAMED 1872-09-10 00:00:00 TS 14.7667 -61.0667 50 hurdat_atl main 459 459 O____________O hurdat_atl AL031872 14.4000 -60.6000 TS 50 0 15.5000 -62.0000 TS 55 9 327
1872253N13301 1872 21 NA CS NOT_NAMED 1872-09-10 03:00:00 TS 15.1733 -61.3076 main 503 503 P____________P AL031872 14.7775 -60.7850 TS 50 0 15.9648 -62.3529 TS 57 10 332
1872253N13301 1872 21 NA CS NOT_NAMED 1872-09-10 06:00:00 TS 15.6000 -61.5333 50 hurdat_atl main 524 482 O____________O hurdat_atl AL031872 15.2000 -61.0000 TS 50 0 16.4000 -62.6000 TS 60 10 333
1872253N13301 1872 21 NA CS NOT_NAMED 1872-09-10 09:00:00 TS 16.0141 -61.7618 main 473 432 P____________P AL031872 15.5925 -61.2351 TS 50 0 16.8574 -62.8152 TS 62 10 332
1872253N13301 1872 21 NA CS NOT_NAMED 1872-09-10 12:00:00 TS 16.4333 -62.0000 50 hurdat_atl main 432 393 O____________O hurdat_atl AL031872 16.0000 -61.5000 TS 50 0 17.3000 -63.0000 HU 65 10 331
1872253N13301 1872 21 NA CS NOT_NAMED 1872-09-10 15:00:00 TS 16.8692 -62.2617 main 378 343 P____________P AL031872 16.4500 -61.7925 TS 50 0 17.7075 -63.2001 HU 65 10 330
1872253N13301 1872 21 NA CS NOT_NAMED 1872-09-10 18:00:00 TS 17.3000 -62.5333 50 hurdat_atl main 343 301 O____________O hurdat_atl AL031872 16.9000 -62.1000 TS 50 0 18.1000 -63.4000 HU 65 10 327
1872253N13301 1872 21 NA CS NOT_NAMED 1872-09-10 21:00:00 TS 17.6975 -62.8176 main 301 264 P____________P AL031872 17.2925 -62.4151 TS 55 0 18.5075 -63.6224 HU 65 10 328
1872253N13301 1872 21 NA CS NOT_NAMED 1872-09-11 00:00:00 TS 18.1000 -63.0667 60 hurdat_atl main 264 253 O____________O hurdat_atl AL031872 17.7000 -62.7000 TS 60 0 18.9000 -63.8000 HU 65 9 335
1872253N13301 1872 21 NA CS NOT_NAMED 1872-09-11 03:00:00 TS 18.5424 -63.2343 main 253 238 P____________P AL031872 18.1849 -62.9152 TS 60 0 19.2575 -63.8727 HU 65 9 342
1872253N13301 1872 21 NA NA NOT_NAMED 1872-09-11 06:00:00 TS 19.0000 -63.3667 60 hurdat_atl main 241 238 O____________O hurdat_atl AL031872 18.7000 -63.1000 TS 60 0 19.6000 -63.9000 HU 65 9 343
1872253N13301 1872 21 NA NA NOT_NAMED 1872-09-11 09:00:00 TS 19.4375 -63.5267 main 247 243 P____________P AL031872 19.1850 -63.3150 TS 60 0 19.9425 -63.9500 HU 65 9 343
1872253N13301 1872 21 NA NA NOT_NAMED 1872-09-11 12:00:00 TS 19.9000 -63.6667 60 hurdat_atl main 260 260 O____________O hurdat_atl AL031872 19.7000 -63.5000 TS 60 0 20.3000 -64.0000 HU 65 10 347
1872253N13301 1872 21 NA NA NOT_NAMED 1872-09-11 15:00:00 TS 20.4483 -63.7650 main 292 292 P____________P AL031872 20.3225 -63.6226 TS 60 0 20.7000 -64.0500 HU 65 11 352
1872253N13301 1872 21 NA NA NOT_NAMED 1872-09-11 18:00:00 TS 20.9667 -63.8333 60 hurdat_atl main 346 346 O____________O hurdat_atl AL031872 20.9000 -63.7000 TS 60 0 21.1000 -64.1000 HU 65 9 352
1872253N13301 1872 21 NA NA NOT_NAMED 1872-09-11 21:00:00 TS 21.3342 -63.8909 main 369 369 P____________P AL031872 21.2725 -63.7651 TS 65 1 21.4575 -64.1426 HU 65 7 352
1872253N13301 1872 21 NA NA NOT_NAMED 1872-09-12 00:00:00 TS 21.6667 -63.9333 70 hurdat_atl main 409 409 O____________O hurdat_atl AL031872 21.6000 -63.8000 HU 70 1 21.8000 -64.2000 HU 65 8 354
1872253N13301 1872 21 NA NA NOT_NAMED 1872-09-12 03:00:00 TS 22.0833 -63.9766 main 446 446 P____________P AL031872 22.0500 -63.8150 HU 70 1 22.1500 -64.2999 HU 65 8 356
1872253N13301 1872 21 NA NA NOT_NAMED 1872-09-12 06:00:00 TS 22.5000 -64.0000 70 hurdat_atl main 487 487 O____________O hurdat_atl AL031872 22.5000 -63.8000 HU 70 1 22.5000 -64.4000 HU 65 8 0
1872253N13301 1872 21 NA NA NOT_NAMED 1872-09-12 09:00:00 TS 22.8550 -63.9909 main 530 530 P____________P AL031872 22.8575 -63.7575 HU 70 1 22.8500 -64.4576 HU 65 7 3
1872253N13301 1872 21 NA NA NOT_NAMED 1872-09-12 12:00:00 TS 23.2000 -63.9667 70 hurdat_atl main 561 561 O____________O hurdat_atl AL031872 23.2000 -63.7000 HU 70 1 23.2000 -64.5000 HU 65 7 3
1872253N13301 1872 21 NA NA NOT_NAMED 1872-09-12 15:00:00 TS 23.5858 -63.9525 main 604 604 P____________P AL031872 23.6000 -63.6500 HU 70 1 23.5575 -64.5575 HU 65 8 2
1872253N13301 1872 21 NA NA NOT_NAMED 1872-09-12 18:00:00 TS 23.9667 -63.9333 70 hurdat_atl main 650 650 O____________O hurdat_atl AL031872 24.0000 -63.6000 HU 70 1 23.9000 -64.6000 HU 65 7 2
1872253N13301 1872 21 NA NA NOT_NAMED 1872-09-12 21:00:00 TS 24.3050 -63.9075 main 682 682 P____________P AL031872 24.3575 -63.5574 HU 70 1 24.2000 -64.6076 HU 65 7 5
1872253N13301 1872 21 NA NA NOT_NAMED 1872-09-13 00:00:00 TS 24.6333 -63.8667 70 hurdat_atl main 715 715 O____________O hurdat_atl AL031872 24.7000 -63.5000 HU 70 1 24.5000 -64.6000 HU 65 7 8
1872253N13301 1872 21 NA NA NOT_NAMED 1872-09-13 03:00:00 TS 24.9833 -63.7976 main 760 760 P____________P AL031872 25.0500 -63.4001 HU 70 1 24.8500 -64.5926 HU 65 7 10
1872253N13301 1872 21 NA NA NOT_NAMED 1872-09-13 06:00:00 TS 25.3333 -63.7333 70 hurdat_atl main 795 795 O____________O hurdat_atl AL031872 25.4000 -63.3000 HU 70 1 25.2000 -64.6000 HU 65 7 6
1872253N13301 1872 21 NA NA NOT_NAMED 1872-09-13 09:00:00 TS 25.6667 -63.7116 main 839 839 P____________P AL031872 25.7500 -63.2424 HU 70 1 25.5000 -64.6499 HU 65 7 4
1872253N13301 1872 21 NA NA NOT_NAMED 1872-09-13 12:00:00 TS 26.0000 -63.7000 70 hurdat_atl main 871 871 O____________O hurdat_atl AL031872 26.1000 -63.2000 HU 70 1 25.8000 -64.7000 HU 65 7 2
1872253N13301 1872 21 NA NA NOT_NAMED 1872-09-13 15:00:00 TS 26.3525 -63.6692 main 915 915 P____________P AL031872 26.4575 -63.1500 HU 70 1 26.1425 -64.7076 HU 65 7 5
1872253N13301 1872 21 NA NA NOT_NAMED 1872-09-13 18:00:00 TS 26.7000 -63.6333 70 hurdat_atl main 950 950 O____________O hurdat_atl AL031872 26.8000 -63.1000 HU 70 1 26.5000 -64.7000 HU 65 7 5
1872253N13301 1872 21 NA NA NOT_NAMED 1872-09-13 21:00:00 TS 27.0167 -63.6049 main 982 982 P____________P AL031872 27.1000 -63.0574 HU 70 1 26.8500 -64.7000 HU 67 6 5
1872253N13301 1872 21 NA NA NOT_NAMED 1872-09-14 00:00:00 TS 27.3333 -63.5667 70 hurdat_atl main 1015 1015 O____________O hurdat_atl AL031872 27.4000 -63.0000 HU 70 1 27.2000 -64.7000 HU 70 7 8
1872253N13301 1872 21 NA NA NOT_NAMED 1872-09-14 03:00:00 TS 27.6833 -63.5050 main 1061 1061 P____________P AL031872 27.7500 -62.9001 HU 70 1 27.5500 -64.7149 HU 70 7 10
1872253N13301 1872 21 NA NA NOT_NAMED 1872-09-14 06:00:00 TS 28.0333 -63.4333 70 hurdat_atl main 1096 1096 O____________O hurdat_atl AL031872 28.1000 -62.8000 HU 70 1 27.9000 -64.7000 HU 70 7 10
1872253N13301 1872 21 NA NA NOT_NAMED 1872-09-14 09:00:00 TS 28.3400 -63.3691 main 1128 1128 P____________P AL031872 28.3850 -62.7498 HU 70 1 28.2500 -64.6077 HU 70 6 10
1872253N13301 1872 21 NA NA NOT_NAMED 1872-09-14 12:00:00 TS 28.6667 -63.3000 70 hurdat_atl main 1174 1174 O____________O hurdat_atl AL031872 28.7000 -62.7000 HU 70 1 28.6000 -64.5000 HU 70 999 8 10
1872253N13301 1872 21 NA NA NOT_NAMED 1872-09-14 15:00:00 TS 29.0783 -63.2142 main 1220 1220 P____________P AL031872 29.1425 -62.6002 HU 70 1 28.9500 -64.4424 HU 70 8 10
1872253N13301 1872 21 NA NA NOT_NAMED 1872-09-14 18:00:00 TS 29.5000 -63.1333 70 hurdat_atl main 1266 1266 O____________O hurdat_atl AL031872 29.6000 -62.5000 HU 70 1 29.3000 -64.4000 HU 70 8 9
1872253N13301 1872 21 NA NA NOT_NAMED 1872-09-14 21:00:00 TS 29.8625 -63.0782 main 1309 1309 P____________P AL031872 29.9650 -62.4423 HU 70 1 29.6575 -64.3500 HU 70 7 7
1872253N13301 1872 21 NA NA NOT_NAMED 1872-09-15 00:00:00 TS 30.2000 -63.0333 70 hurdat_atl main 1318 1301 O____________O hurdat_atl AL031872 30.3000 -62.4000 HU 70 1 30.0000 -64.3000 HU 70 7 6
1872253N13301 1872 21 NA NA NOT_NAMED 1872-09-15 03:00:00 TS 30.5333 -62.9858 main 1301 1285 P____________P AL031872 30.6500 -62.3500 HU 70 1 30.3000 -64.2574 HU 70 7 8
1872253N13301 1872 21 NA NA NOT_NAMED 1872-09-15 06:00:00 TS 30.8667 -62.9333 70 hurdat_atl main 1288 1272 O____________O hurdat_atl AL031872 31.0000 -62.3000 HU 70 1 30.6000 -64.2000 HU 70 7 8
1872253N13301 1872 21 NA NA NOT_NAMED 1872-09-15 09:00:00 TS 31.2242 -62.8741 main 1272 1266 P____________P AL031872 31.3650 -62.2500 HU 70 1 30.9425 -64.1224 HU 70 7 9
1872253N13301 1872 21 NA NA NOT_NAMED 1872-09-15 12:00:00 TS 31.5667 -62.8000 70 hurdat_atl main 1261 1256 O____________O hurdat_atl AL031872 31.7000 -62.2000 HU 70 1 31.3000 -64.0000 HU 70 7 13
1872253N13301 1872 21 NA NA NOT_NAMED 1872-09-15 15:00:00 TS 31.8575 -62.7075 main 1256 1251 P____________P AL031872 31.9575 -62.1574 HU 70 1 31.6576 -63.8076 HU 70 6 16
1872253N13301 1872 21 NA NA NOT_NAMED 1872-09-15 18:00:00 TS 32.1333 -62.6000 70 hurdat_atl main 1253 1229 O____________O hurdat_atl AL031872 32.2000 -62.1000 HU 70 1 32.0000 -63.6000 HU 70 6 18
1872253N13301 1872 21 NA NA NOT_NAMED 1872-09-15 21:00:00 TS 32.4283 -62.4833 main 1229 1205 P____________P AL031872 32.4850 -62.0001 HU 70 1 32.3149 -63.4498 HU 70 6 18
1872253N13301 1872 21 NA NA NOT_NAMED 1872-09-16 00:00:00 TS 32.7333 -62.3667 70 hurdat_atl main 1205 1181 O____________O hurdat_atl AL031872 32.8000 -61.9000 HU 70 1 32.6000 -63.3000 HU 70 7 17
1872253N13301 1872 21 NA NA NOT_NAMED 1872-09-16 03:00:00 TS 33.0550 -62.2641 main 1172 1149 P____________P AL031872 33.1575 -61.8424 HU 70 1 32.8500 -63.1074 HU 70 7 15
1872253N13301 1872 21 NA NA NOT_NAMED 1872-09-16 06:00:00 TS 33.3667 -62.1667 70 hurdat_atl main 1149 1136 O____________O hurdat_atl AL031872 33.5000 -61.8000 HU 70 1 33.1000 -62.9000 HU 70 6 15
1872253N13301 1872 21 NA NA NOT_NAMED 1872-09-16 09:00:00 TS 33.6433 -62.0741 main 1136 1106 P____________P AL031872 33.7650 -61.7574 HU 70 1 33.3999 -62.7074 HU 70 6 18
1872253N13301 1872 21 NA NA NOT_NAMED 1872-09-16 12:00:00 TS 33.9000 -61.9667 70 hurdat_atl main 1106 1086 O____________O hurdat_atl AL031872 34.0000 -61.7000 HU 70 1 33.7000 -62.5000 HU 70 5 22
1872253N13301 1872 21 NA NA NOT_NAMED 1872-09-16 15:00:00 TS 34.1300 -61.8363 main 1089 1059 P____________P AL031872 34.2275 -61.6222 HU 70 1 33.9349 -62.2646 HU 70 6 26
1872253N13301 1872 21 NA NA NOT_NAMED 1872-09-16 18:00:00 TS 34.4000 -61.6667 70 hurdat_atl main 1059 1021 O____________O hurdat_atl AL031872 34.5000 -61.5000 HU 70 1 34.2000 -62.0000 HU 70 7 26
1872253N13301 1872 21 NA NA NOT_NAMED 1872-09-16 21:00:00 TS 34.7825 -61.4460 main 1024 988 P____________P AL031872 34.8850 -61.3152 HU 70 1 34.5775 -61.7075 HU 70 9 26
1872253N13301 1872 21 NA NA NOT_NAMED 1872-09-17 00:00:00 TS 35.2000 -61.2000 70 hurdat_atl main 988 963 O____________O hurdat_atl AL031872 35.3000 -61.1000 HU 70 1 35.0000 -61.4000 HU 70 9 26
1872253N13301 1872 21 NA NA NOT_NAMED 1872-09-17 03:00:00 TS 35.5566 -60.9761 main 952 928 P____________P AL031872 35.6349 -60.9143 HU 70 1 35.3999 -61.0997 HU 70 8 27
1872253N13301 1872 21 NA NA NOT_NAMED 1872-09-17 06:00:00 TS 35.9333 -60.7333 70 hurdat_atl main 932 888 O____________O hurdat_atl AL031872 36.0000 -60.7000 HU 70 1 35.8000 -60.8000 HU 70 10 27
1872253N13301 1872 21 NA NA NOT_NAMED 1872-09-17 09:00:00 TS 36.4000 -60.4361 main 892 861 P____________P AL031872 36.5001 -60.4006 HU 70 1 36.1999 -60.5071 HU 70 11 27
1872253N13301 1872 21 NA NA NOT_NAMED 1872-09-17 12:00:00 TS 36.8667 -60.1333 70 hurdat_atl main 855 835 O____________O hurdat_atl AL031872 37.0000 -60.1000 HU 70 1 36.6000 -60.2000 HU 70 10 28
1872253N13301 1872 21 NA NA NOT_NAMED 1872-09-17 15:00:00 TS 37.2533 -59.8655 main 826 807 P____________P AL031872 37.3799 -59.8770 HU 70 1 37.0001 -59.8425 HU 70 8 29
1872253N13301 1872 21 NA NA NOT_NAMED 1872-09-17 18:00:00 TS 37.6000 -59.6333 70 hurdat_atl main 812 790 O____________O hurdat_atl AL031872 37.7000 -59.7000 HU 70 1 37.4000 -59.5000 HU 70 8 26
1872253N13301 1872 21 NA NA NOT_NAMED 1872-09-17 21:00:00 TS 37.9357 -59.4396 main 795 774 P____________P AL031872 38.0074 -59.5422 HU 70 1 37.7923 -59.2344 HU 70 7 23
1872253N13301 1872 21 NA NA NOT_NAMED 1872-09-18 00:00:00 TS 38.2667 -59.2667 70 hurdat_atl main 764 744 O____________O hurdat_atl AL031872 38.3000 -59.4000 HU 70 1 38.2000 -59.0000 HU 70 7 22
1872253N13301 1872 21 NA NA NOT_NAMED 1872-09-18 03:00:00 TS 38.6166 -59.0881 main 744 716 P____________P AL031872 38.5999 -59.2573 HU 70 1 38.6499 -58.7498 HU 70 8 22
1872253N13301 1872 21 NA NA NOT_NAMED 1872-09-18 06:00:00 TS 38.9667 -58.9000 70 hurdat_atl main 710 684 O____________O hurdat_atl AL031872 38.9000 -59.1000 HU 70 1 39.1000 -58.5000 HU 70 8 24
1872253N13301 1872 21 NA NA NOT_NAMED 1872-09-18 09:00:00 TS 39.3075 -58.6833 main 684 658 P____________P AL031872 39.2075 -58.9001 HU 70 1 39.5074 -58.2496 HU 70 7 27
1872253N13301 1872 21 NA NA NOT_NAMED 1872-09-18 12:00:00 TS 39.6333 -58.4667 70 hurdat_atl main 658 632 O____________O hurdat_atl AL031872 39.5000 -58.7000 HU 70 1 39.9000 -58.0000 HU 70 7 27
1872253N13301 1872 21 NA NA NOT_NAMED 1872-09-18 15:00:00 TS 39.9208 -58.2755 main 632 607 P____________P AL031872 39.7274 -58.5494 HU 70 1 40.3076 -57.7277 HU 70 7 25
1872253N13301 1872 21 NA NA NOT_NAMED 1872-09-18 18:00:00 TS 40.2333 -58.1000 70 hurdat_atl main 607 569 O____________O hurdat_atl AL031872 40.0000 -58.4000 HU 70 1 40.7000 -57.5000 HU 70 8 19
1872253N13301 1872 21 NA NA NOT_NAMED 1872-09-18 21:00:00 TS 40.6499 -57.9432 main 573 537 P____________P AL031872 40.4424 -58.2226 HU 70 1 41.0649 -57.3844 HU 70 9 17
1872253N13301 1872 21 NA NA NOT_NAMED 1872-09-19 00:00:00 TS 41.0667 -57.7667 70 hurdat_atl main 528 507 O____________O hurdat_atl AL031872 40.9000 -58.0000 HU 70 1 41.4000 -57.3000 HU 70 8 23
1872253N13301 1872 21 NA NA NOT_NAMED 1872-09-19 03:00:00 TS 41.3892 -57.5241 main 512 494 P____________P AL031872 41.2301 -57.7074 HU 70 1 41.7075 -57.1574 HU 70 7 32
1872253N13301 1872 21 NA NA NOT_NAMED 1872-09-19 06:00:00 TS 41.6667 -57.2667 70 hurdat_atl main 494 487 O____________O hurdat_atl AL031872 41.5000 -57.4000 HU 70 1 42.0000 -57.0000 HU 70 7 33
1872253N13301 1872 21 NA NA NOT_NAMED 1872-09-19 09:00:00 TS 41.9383 -57.0422 main 492 469 P____________P AL031872 41.7574 -57.1421 HU 70 1 42.3000 -56.8425 HU 70 6 31
1872253N13301 1872 21 NA NA NOT_NAMED 1872-09-19 12:00:00 TS 42.2000 -56.8333 70 hurdat_atl main 474 461 O____________O hurdat_atl AL031872 42.0000 -56.9000 HU 70 1 42.6000 -56.7000 HU 70 6 31
1872253N13301 1872 21 NA NA NOT_NAMED 1872-09-19 15:00:00 TS 42.4541 -56.6281 main 458 447 P____________P AL031872 42.2500 -56.6424 HU 70 1 42.8624 -56.5994 HU 70 6 29
1872253N13301 1872 21 NA NA NOT_NAMED 1872-09-19 18:00:00 TS 42.7333 -56.4333 70 hurdat_atl main 452 413 O____________O hurdat_atl AL031872 42.5000 -56.4000 HU 70 1 43.2000 -56.5000 HU 70 7 24
1872253N13301 1872 21 NA NA NOT_NAMED 1872-09-19 21:00:00 TS 43.0833 -56.2500 main 413 379 P____________P AL031872 42.7649 -56.1998 HU 70 1 43.7200 -56.3504 HU 70 7 21
1872253N13301 1872 21 NA NA NOT_NAMED 1872-09-20 00:00:00 TS 43.4333 -56.0667 70 hurdat_atl main 379 344 O____________O hurdat_atl AL031872 43.0000 -56.0000 HU 70 1 44.3000 -56.2000 HU 70 7 24
1872253N13301 1872 21 NA NA NOT_NAMED 1872-09-20 03:00:00 TS 43.7050 -55.8712 main 344 311 P____________P AL031872 43.1575 -55.7572 HU 70 1 44.7999 -56.0993 HU 70 6 28
1872253N13301 1872 21 NA NA NOT_NAMED 1872-09-20 06:00:00 TS 43.9667 -55.6667 70 hurdat_atl main 311 278 O____________O hurdat_atl AL031872 43.3000 -55.5000 HU 70 1 45.3000 -56.0000 HU 70 6 28
1872253N13301 1872 21 NA NA NOT_NAMED 1872-09-20 09:00:00 TS 44.2733 -55.4500 main 278 246 P____________P AL031872 43.4849 -55.2498 HU 70 1 45.8500 -55.8502 HU 67 7 26
1872253N13301 1872 21 NA NA NOT_NAMED 1872-09-20 12:00:00 TS 44.6000 -55.2333 70 hurdat_atl main 247 216 O____________O hurdat_atl AL031872 43.7000 -55.0000 HU 70 1 46.4000 -55.7000 HU 65 7 24
1872253N13301 1872 21 NA NA NOT_NAMED 1872-09-20 15:00:00 TS 44.9326 -55.0295 main 217 180 P____________P AL031872 43.9426 -54.7505 HU 70 1 46.9125 -55.5875 HU 62 7 23
1872253N13301 1872 21 NA NA NOT_NAMED 1872-09-20 18:00:00 MX 45.2667 -54.8333 70 hurdat_atl main 171 O____________O hurdat_atl AL031872 44.2000 -54.5000 HU 70 1 47.4000 -55.5000 EX 60 7 22

About IBTrACS Database

This database is a web-friendly format of International Best Track Archive for Climate Stewardship (IBTrACS), a global best track data archive curated by NOAA dating back to 1842.

Updated: 2021-10-27